Buxtehude — V2BY8 — position and weather

sailwx.info

Track history (hours):
 
Tides and Currents Weather Stations Pressure Air Temp Water Temp Dewpoint Dewpoint Depression Visibility Wind Speed Wind Dir Waves Ship Positions

Buxtehude

Last reported at 2016-Feb-12 13:30 UTC. Time now 2016-Feb-12 14:12 UTC.
Position N 53°28' W 003°01'.

Length 134 m; draft 7.9 m.

Type: Cargo ship. MMSI: 304962000.

Date/timePositionNaut miles runAvg speedWind from/ knotsBaromVisibWave heightAir tempDewpointWater temp
2016-Feb-12 13:30N 53°28' W 003°01'0 0.0
2016-Feb-12 12:33N 53°28' W 003°01'0 0.0
2016-Feb-12 11:32N 53°28' W 003°01'0 0.0
2016-Feb-12 10:32N 53°28' W 003°01'0 0.0
2016-Feb-12 09:31N 53°28' W 003°01'0 0.0
2016-Feb-12 08:31N 53°28' W 003°01'0 0.0
2016-Feb-12 07:33N 53°28' W 003°01'0 0.0
2016-Feb-12 06:33N 53°28' W 003°01'0 0.0
2016-Feb-12 05:33N 53°28' W 003°01'0 0.0
2016-Feb-12 04:32N 53°28' W 003°01'0 0.0
2016-Feb-12 03:32N 53°28' W 003°01'0 0.0
2016-Feb-12 02:33N 53°28' W 003°01'1 0.7
2016-Feb-12 01:33N 53°27' W 003°01'9 8.6
2016-Feb-12 00:33N 53°31' W 003°14'6 5.8
2016-Feb-11 23:33N 53°28' W 003°22'0 0.0
2016-Feb-11 22:31N 53°28' W 003°22'5 5.3
2016-Feb-11 21:33N 53°30' W 003°30'1414.1
2016-Feb-11 20:33N 53°31' W 003°54'  
2016-Feb-09 16:29N 41°59' W 009°16'1712.4
2016-Feb-09 15:05N 41°43' W 009°06'712.3
2016-Feb-09 14:33N 41°37' W 009°03'1312.4
2016-Feb-09 13:32N 41°26' W 008°56'1212.4
2016-Feb-09 12:33N 41°15' W 008°50'7 7.2
2016-Feb-09 11:33N 41°10' W 008°43'2 2.0
2016-Feb-09 10:32N 41°12' W 008°41'0 0.0
2016-Feb-09 09:32N 41°12' W 008°41'0 0.0
2016-Feb-09 08:32N 41°12' W 008°41'0 0.0
2016-Feb-09 07:32N 41°12' W 008°41'0 0.0
2016-Feb-09 06:33N 41°12' W 008°41'5 5.2
2016-Feb-09 05:33N 41°08' W 008°46'1211.6
2016-Feb-09 04:33N 40°57' W 008°51'1312.8
2016-Feb-09 03:32N 40°45' W 008°58'9 8.9
2016-Feb-09 02:32N 40°37' W 009°04'9 9.0
2016-Feb-09 01:33N 40°29' W 009°08'9 9.0
2016-Feb-09 00:33N 40°21' W 009°14'1211.6
2016-Feb-08 23:29N 40°10' W 009°20'1010.9
2016-Feb-08 22:32N 40°01' W 009°26'8 8.0
2016-Feb-08 21:32N 39°53' W 009°31'9 8.6
2016-Feb-08 20:32N 39°46' W 009°35'1111.5
2016-Feb-08 19:32N 39°35' W 009°41'9 9.1
2016-Feb-08 18:33N 39°26' W 009°43'8 8.0
2016-Feb-08 17:33N 39°18' W 009°43'8 8.0
2016-Feb-08 16:33N 39°10' W 009°43'9 9.2
2016-Feb-08 15:33N 39°01' W 009°43'1211.5
2016-Feb-08 14:33N 38°50' W 009°42'1111.4
2016-Feb-08 13:33N 38°38' W 009°40'1211.5
2016-Feb-08 12:33N 38°30' W 009°30'1110.5
2016-Feb-08 11:33N 38°22' W 009°21'8 8.1
2016-Feb-08 10:33N 38°15' W 009°15'1514.9
2016-Feb-08 09:33N 38°04' W 009°03'1313.0
2016-Feb-08 08:33N 37°55' W 008°50'1 0.7
2016-Feb-08 07:31N 37°56' W 008°51'0 0.0
2016-Feb-08 06:34N 37°56' W 008°51'0 0.0
2016-Feb-08 05:33N 37°56' W 008°51'0 0.0
2016-Feb-08 04:33N 37°56' W 008°51'0 0.0
2016-Feb-08 03:29N 37°56' W 008°51'0 0.0
2016-Feb-08 02:32N 37°56' W 008°51'0 0.0
2016-Feb-08 01:31N 37°56' W 008°51'0 0.0
2016-Feb-08 00:31N 37°56' W 008°51'0 0.1
2016-Feb-07 23:33N 37°56' W 008°51'1 1.4
2016-Feb-07 22:32N 37°55' W 008°51'0 0.1
2016-Feb-07 21:32N 37°55' W 008°51'0 0.0
2016-Feb-07 20:32N 37°55' W 008°51'0 0.0
2016-Feb-07 19:31N 37°55' W 008°51'0 0.0
2016-Feb-07 18:28N 37°55' W 008°51'2 2.1
2016-Feb-07 17:33N 37°55' W 008°54'1111.0
2016-Feb-07 16:33N 38°05' W 009°00'1312.6
2016-Feb-07 15:33N 38°17' W 008°59'1111.3
2016-Feb-07 14:33N 38°28' W 008°57'4 3.6
2016-Feb-07 13:21N 38°31' W 008°52'0 0.0
2016-Feb-07 12:27N 38°31' W 008°52'0 0.0
2016-Feb-07 10:22N 38°31' W 008°52'0 0.0
2016-Feb-07 09:31N 38°31' W 008°52'0 0.0
2016-Feb-07 08:33N 38°31' W 008°52'0 0.0
2016-Feb-07 07:33N 38°31' W 008°52'0 0.0
2016-Feb-07 06:26N 38°31' W 008°52'0 0.0
2016-Feb-07 05:32N 38°31' W 008°52'0 0.0
2016-Feb-07 04:32N 38°31' W 008°52'0 0.0
2016-Feb-07 03:33N 38°31' W 008°52'0 0.0
2016-Feb-07 02:32N 38°31' W 008°52'0 0.0
2016-Feb-07 01:27N 38°31' W 008°52'0 0.0
2016-Feb-07 00:30N 38°31' W 008°52'0 0.0
2016-Feb-06 23:33N 38°31' W 008°52'0 0.0
2016-Feb-06 22:17N 38°31' W 008°52'0 0.0
2016-Feb-06 21:32N 38°31' W 008°52'0 0.0
2016-Feb-06 20:28N 38°31' W 008°52'0 0.0
2016-Feb-06 19:33N 38°31' W 008°52'0 0.0
2016-Feb-06 18:33N 38°31' W 008°52'0 0.0
2016-Feb-06 17:33N 38°31' W 008°52'0 0.0
2016-Feb-06 16:33N 38°31' W 008°52'0 0.0
2016-Feb-06 15:32N 38°31' W 008°52'0 0.0
2016-Feb-06 14:33N 38°31' W 008°52'0 0.0
2016-Feb-06 13:33N 38°31' W 008°52'0 0.0
2016-Feb-06 12:28N 38°31' W 008°52'0 0.0
2016-Feb-06 11:27N 38°31' W 008°52'0 0.0
2016-Feb-06 10:30N 38°31' W 008°52'0 0.0
2016-Feb-06 09:30N 38°31' W 008°52'0 0.0
2016-Feb-06 08:32N 38°31' W 008°52'0 0.0
2016-Feb-06 07:32N 38°31' W 008°52'0 0.0
2016-Feb-06 06:33N 38°31' W 008°52'0 0.0
2016-Feb-06 05:31N 38°31' W 008°52'0 0.0
2016-Feb-06 04:33N 38°31' W 008°52'0 0.0
2016-Feb-06 03:24N 38°31' W 008°52'0 0.0
2016-Feb-06 02:32N 38°31' W 008°52'0 0.0
2016-Feb-06 01:32N 38°31' W 008°52'0 0.0
2016-Feb-06 00:28N 38°31' W 008°52'0 0.0
2016-Feb-05 23:10N 38°31' W 008°52'0 0.0
2016-Feb-05 22:28N 38°31' W 008°52'0 0.0
2016-Feb-05 21:33N 38°31' W 008°52'0 0.0
2016-Feb-05 19:32N 38°31' W 008°52'0 0.0
2016-Feb-05 18:32N 38°31' W 008°52'0 0.0
2016-Feb-05 17:31N 38°31' W 008°52'0 0.0
2016-Feb-05 16:07N 38°31' W 008°52'0 0.0
2016-Feb-05 15:25N 38°31' W 008°52'0 0.0
2016-Feb-05 14:33N 38°31' W 008°52'0 0.0
2016-Feb-05 13:33N 38°31' W 008°52'0 0.0
2016-Feb-05 12:33N 38°31' W 008°52'0 0.0
2016-Feb-05 11:29N 38°31' W 008°52'0 0.0
2016-Feb-05 10:32N 38°31' W 008°52'0 0.0
2016-Feb-05 09:28N 38°31' W 008°52'0 0.0
2016-Feb-05 08:31N 38°31' W 008°52'0 0.0
2016-Feb-05 07:33N 38°31' W 008°52'0 0.0
2016-Feb-05 06:33N 38°31' W 008°52'0 0.0
2016-Feb-05 05:32N 38°31' W 008°52'0 0.0
2016-Feb-05 04:32N 38°31' W 008°52'0 0.0
2016-Feb-05 03:32N 38°31' W 008°52'0 0.0
2016-Feb-05 02:31N 38°31' W 008°52'0 0.0
2016-Feb-05 01:31N 38°31' W 008°52'0 0.0
2016-Feb-05 00:33N 38°31' W 008°52'0 0.0
2016-Feb-04 23:33N 38°31' W 008°52'0 0.0
2016-Feb-04 22:32N 38°31' W 008°52'0 0.0
2016-Feb-04 21:29N 38°31' W 008°52'0 0.0
2016-Feb-04 20:32N 38°31' W 008°52'0 0.0
2016-Feb-04 19:31N 38°31' W 008°52'0 0.0
2016-Feb-04 18:31N 38°31' W 008°52'0 0.0
2016-Feb-04 17:33N 38°31' W 008°52'0 0.0
2016-Feb-04 16:33N 38°31' W 008°52'0 0.0
2016-Feb-04 15:32N 38°31' W 008°52'0 0.0
2016-Feb-04 14:31N 38°31' W 008°52'0 0.0
2016-Feb-04 13:16N 38°31' W 008°52'0 0.0
2016-Feb-04 12:31N 38°31' W 008°52'0 0.0
2016-Feb-04 11:33N 38°31' W 008°52'0 0.0
2016-Feb-04 10:32N 38°31' W 008°52'0 0.0
2016-Feb-04 09:33N 38°31' W 008°52'0 0.0
2016-Feb-04 08:33N 38°31' W 008°52'0 0.0
2016-Feb-04 07:33N 38°31' W 008°52'1 1.0
2016-Feb-04 06:33N 38°31' W 008°54'1010.5
2016-Feb-04 05:33N 38°22' W 008°60'1312.4
2016-Feb-04 04:32N 38°09' W 009°04'8 8.3
2016-Feb-04 03:33N 38°01' W 009°06'10 9.9
2016-Feb-04 02:33N 37°52' W 009°08'1212.4
2016-Feb-04 01:33N 37°40' W 009°12'1212.1
2016-Feb-04 00:33N 37°28' W 009°15'1312.9
2016-Feb-03 23:33N 37°15' W 009°18'1313.3
2016-Feb-03 22:33N 37°02' W 009°20'1211.7
2016-Feb-03 21:33N 36°51' W 009°16'1111.2
2016-Feb-03 20:33N 36°44' W 009°05'1010.4
2016-Feb-03 19:33N 36°41' W 008°53'9 8.5
2016-Feb-03 18:33N 36°38' W 008°43'9 9.2
2016-Feb-03 17:31N 36°35' W 008°31'1111.1
2016-Feb-03 16:31N 36°31' W 008°18'1110.9
2016-Feb-03 15:31N 36°28' W 008°06'4810.8
2016-Feb-03 11:05N 36°13' W 007°09'6 9.8
2016-Feb-03 10:27N 36°11' W 007°02'4410.4
2016-Feb-03 06:15N 35°58' W 006°10'2112.4
2016-Feb-03 04:33N 35°57' W 005°44'1211.7
2016-Feb-03 03:33N 35°59' W 005°30'1110.8
2016-Feb-03 02:33N 36°02' W 005°17'1111.1
2016-Feb-03 01:32N 36°04' W 005°03'  
Track history (hours):
 
Tides and Currents Weather Stations Pressure Air Temp Water Temp Dewpoint Dewpoint Depression Visibility Wind Speed Wind Dir Waves Ship Positions

Buxtehude

Last reported at 2016-Feb-12 13:30 UTC. Time now 2016-Feb-12 14:12 UTC.
Position N 53°28' W 003°01'.

Length 134 m; draft 7.9 m.

Type: Cargo ship. MMSI: 304962000.

Date/timePositionNaut miles runAvg speedWind from/ knotsBaromVisibWave heightAir tempDewpointWater temp
2016-Feb-12 13:30N 53°28' W 003°01'0 0.0
2016-Feb-12 12:33N 53°28' W 003°01'0 0.0
2016-Feb-12 11:32N 53°28' W 003°01'0 0.0
2016-Feb-12 10:32N 53°28' W 003°01'0 0.0
2016-Feb-12 09:31N 53°28' W 003°01'0 0.0
2016-Feb-12 08:31N 53°28' W 003°01'0 0.0
2016-Feb-12 07:33N 53°28' W 003°01'0 0.0
2016-Feb-12 06:33N 53°28' W 003°01'0 0.0
2016-Feb-12 05:33N 53°28' W 003°01'0 0.0
2016-Feb-12 04:32N 53°28' W 003°01'0 0.0
2016-Feb-12 03:32N 53°28' W 003°01'0 0.0
2016-Feb-12 02:33N 53°28' W 003°01'1 0.7
2016-Feb-12 01:33N 53°27' W 003°01'9 8.6
2016-Feb-12 00:33N 53°31' W 003°14'6 5.8
2016-Feb-11 23:33N 53°28' W 003°22'0 0.0
2016-Feb-11 22:31N 53°28' W 003°22'5 5.3
2016-Feb-11 21:33N 53°30' W 003°30'1414.1
2016-Feb-11 20:33N 53°31' W 003°54'  
2016-Feb-09 16:29N 41°59' W 009°16'1712.4
2016-Feb-09 15:05N 41°43' W 009°06'712.3
2016-Feb-09 14:33N 41°37' W 009°03'1312.4
2016-Feb-09 13:32N 41°26' W 008°56'1212.4
2016-Feb-09 12:33N 41°15' W 008°50'7 7.2
2016-Feb-09 11:33N 41°10' W 008°43'2 2.0
2016-Feb-09 10:32N 41°12' W 008°41'0 0.0
2016-Feb-09 09:32N 41°12' W 008°41'0 0.0
2016-Feb-09 08:32N 41°12' W 008°41'0 0.0
2016-Feb-09 07:32N 41°12' W 008°41'0 0.0
2016-Feb-09 06:33N 41°12' W 008°41'5 5.2
2016-Feb-09 05:33N 41°08' W 008°46'1211.6
2016-Feb-09 04:33N 40°57' W 008°51'1312.8
2016-Feb-09 03:32N 40°45' W 008°58'9 8.9
2016-Feb-09 02:32N 40°37' W 009°04'9 9.0
2016-Feb-09 01:33N 40°29' W 009°08'9 9.0
2016-Feb-09 00:33N 40°21' W 009°14'1211.6
2016-Feb-08 23:29N 40°10' W 009°20'1010.9
2016-Feb-08 22:32N 40°01' W 009°26'8 8.0
2016-Feb-08 21:32N 39°53' W 009°31'9 8.6
2016-Feb-08 20:32N 39°46' W 009°35'1111.5
2016-Feb-08 19:32N 39°35' W 009°41'9 9.1
2016-Feb-08 18:33N 39°26' W 009°43'8 8.0
2016-Feb-08 17:33N 39°18' W 009°43'8 8.0
2016-Feb-08 16:33N 39°10' W 009°43'9 9.2
2016-Feb-08 15:33N 39°01' W 009°43'1211.5
2016-Feb-08 14:33N 38°50' W 009°42'1111.4
2016-Feb-08 13:33N 38°38' W 009°40'1211.5
2016-Feb-08 12:33N 38°30' W 009°30'1110.5
2016-Feb-08 11:33N 38°22' W 009°21'8 8.1
2016-Feb-08 10:33N 38°15' W 009°15'1514.9
2016-Feb-08 09:33N 38°04' W 009°03'1313.0
2016-Feb-08 08:33N 37°55' W 008°50'1 0.7
2016-Feb-08 07:31N 37°56' W 008°51'0 0.0
2016-Feb-08 06:34N 37°56' W 008°51'0 0.0
2016-Feb-08 05:33N 37°56' W 008°51'0 0.0
2016-Feb-08 04:33N 37°56' W 008°51'0 0.0
2016-Feb-08 03:29N 37°56' W 008°51'0 0.0
2016-Feb-08 02:32N 37°56' W 008°51'0 0.0
2016-Feb-08 01:31N 37°56' W 008°51'0 0.0
2016-Feb-08 00:31N 37°56' W 008°51'0 0.1
2016-Feb-07 23:33N 37°56' W 008°51'1 1.4
2016-Feb-07 22:32N 37°55' W 008°51'0 0.1
2016-Feb-07 21:32N 37°55' W 008°51'0 0.0
2016-Feb-07 20:32N 37°55' W 008°51'0 0.0
2016-Feb-07 19:31N 37°55' W 008°51'0 0.0
2016-Feb-07 18:28N 37°55' W 008°51'2 2.1
2016-Feb-07 17:33N 37°55' W 008°54'1111.0
2016-Feb-07 16:33N 38°05' W 009°00'1312.6
2016-Feb-07 15:33N 38°17' W 008°59'1111.3
2016-Feb-07 14:33N 38°28' W 008°57'4 3.6
2016-Feb-07 13:21N 38°31' W 008°52'0 0.0
2016-Feb-07 12:27N 38°31' W 008°52'0 0.0
2016-Feb-07 10:22N 38°31' W 008°52'0 0.0
2016-Feb-07 09:31N 38°31' W 008°52'0 0.0
2016-Feb-07 08:33N 38°31' W 008°52'0 0.0
2016-Feb-07 07:33N 38°31' W 008°52'0 0.0
2016-Feb-07 06:26N 38°31' W 008°52'0 0.0
2016-Feb-07 05:32N 38°31' W 008°52'0 0.0
2016-Feb-07 04:32N 38°31' W 008°52'0 0.0
2016-Feb-07 03:33N 38°31' W 008°52'0 0.0
2016-Feb-07 02:32N 38°31' W 008°52'0 0.0
2016-Feb-07 01:27N 38°31' W 008°52'0 0.0
2016-Feb-07 00:30N 38°31' W 008°52'0 0.0
2016-Feb-06 23:33N 38°31' W 008°52'0 0.0
2016-Feb-06 22:17N 38°31' W 008°52'0 0.0
2016-Feb-06 21:32N 38°31' W 008°52'0 0.0
2016-Feb-06 20:28N 38°31' W 008°52'0 0.0
2016-Feb-06 19:33N 38°31' W 008°52'0 0.0
2016-Feb-06 18:33N 38°31' W 008°52'0 0.0
2016-Feb-06 17:33N 38°31' W 008°52'0 0.0
2016-Feb-06 16:33N 38°31' W 008°52'0 0.0
2016-Feb-06 15:32N 38°31' W 008°52'0 0.0
2016-Feb-06 14:33N 38°31' W 008°52'0 0.0
2016-Feb-06 13:33N 38°31' W 008°52'0 0.0
2016-Feb-06 12:28N 38°31' W 008°52'0 0.0
2016-Feb-06 11:27N 38°31' W 008°52'0 0.0
2016-Feb-06 10:30N 38°31' W 008°52'0 0.0
2016-Feb-06 09:30N 38°31' W 008°52'0 0.0
2016-Feb-06 08:32N 38°31' W 008°52'0 0.0
2016-Feb-06 07:32N 38°31' W 008°52'0 0.0
2016-Feb-06 06:33N 38°31' W 008°52'0 0.0
2016-Feb-06 05:31N 38°31' W 008°52'0 0.0
2016-Feb-06 04:33N 38°31' W 008°52'0 0.0
2016-Feb-06 03:24N 38°31' W 008°52'0 0.0
2016-Feb-06 02:32N 38°31' W 008°52'0 0.0
2016-Feb-06 01:32N 38°31' W 008°52'0 0.0
2016-Feb-06 00:28N 38°31' W 008°52'0 0.0
2016-Feb-05 23:10N 38°31' W 008°52'0 0.0
2016-Feb-05 22:28N 38°31' W 008°52'0 0.0
2016-Feb-05 21:33N 38°31' W 008°52'0 0.0
2016-Feb-05 19:32N 38°31' W 008°52'0 0.0
2016-Feb-05 18:32N 38°31' W 008°52'0 0.0
2016-Feb-05 17:31N 38°31' W 008°52'0 0.0
2016-Feb-05 16:07N 38°31' W 008°52'0 0.0
2016-Feb-05 15:25N 38°31' W 008°52'0 0.0
2016-Feb-05 14:33N 38°31' W 008°52'0 0.0
2016-Feb-05 13:33N 38°31' W 008°52'0 0.0
2016-Feb-05 12:33N 38°31' W 008°52'0 0.0
2016-Feb-05 11:29N 38°31' W 008°52'0 0.0
2016-Feb-05 10:32N 38°31' W 008°52'0 0.0
2016-Feb-05 09:28N 38°31' W 008°52'0 0.0
2016-Feb-05 08:31N 38°31' W 008°52'0 0.0
2016-Feb-05 07:33N 38°31' W 008°52'0 0.0
2016-Feb-05 06:33N 38°31' W 008°52'0 0.0
2016-Feb-05 05:32N 38°31' W 008°52'0 0.0
2016-Feb-05 04:32N 38°31' W 008°52'0 0.0
2016-Feb-05 03:32N 38°31' W 008°52'0 0.0
2016-Feb-05 02:31N 38°31' W 008°52'0 0.0
2016-Feb-05 01:31N 38°31' W 008°52'0 0.0
2016-Feb-05 00:33N 38°31' W 008°52'0 0.0
2016-Feb-04 23:33N 38°31' W 008°52'0 0.0
2016-Feb-04 22:32N 38°31' W 008°52'0 0.0
2016-Feb-04 21:29N 38°31' W 008°52'0 0.0
2016-Feb-04 20:32N 38°31' W 008°52'0 0.0
2016-Feb-04 19:31N 38°31' W 008°52'0 0.0
2016-Feb-04 18:31N 38°31' W 008°52'0 0.0
2016-Feb-04 17:33N 38°31' W 008°52'0 0.0
2016-Feb-04 16:33N 38°31' W 008°52'0 0.0
2016-Feb-04 15:32N 38°31' W 008°52'0 0.0
2016-Feb-04 14:31N 38°31' W 008°52'0 0.0
2016-Feb-04 13:16N 38°31' W 008°52'0 0.0
2016-Feb-04 12:31N 38°31' W 008°52'0 0.0
2016-Feb-04 11:33N 38°31' W 008°52'0 0.0
2016-Feb-04 10:32N 38°31' W 008°52'0 0.0
2016-Feb-04 09:33N 38°31' W 008°52'0 0.0
2016-Feb-04 08:33N 38°31' W 008°52'0 0.0
2016-Feb-04 07:33N 38°31' W 008°52'1 1.0
2016-Feb-04 06:33N 38°31' W 008°54'1010.5
2016-Feb-04 05:33N 38°22' W 008°60'1312.4
2016-Feb-04 04:32N 38°09' W 009°04'8 8.3
2016-Feb-04 03:33N 38°01' W 009°06'10 9.9
2016-Feb-04 02:33N 37°52' W 009°08'1212.4
2016-Feb-04 01:33N 37°40' W 009°12'1212.1
2016-Feb-04 00:33N 37°28' W 009°15'1312.9
2016-Feb-03 23:33N 37°15' W 009°18'1313.3
2016-Feb-03 22:33N 37°02' W 009°20'1211.7
2016-Feb-03 21:33N 36°51' W 009°16'1111.2
2016-Feb-03 20:33N 36°44' W 009°05'1010.4
2016-Feb-03 19:33N 36°41' W 008°53'9 8.5
2016-Feb-03 18:33N 36°38' W 008°43'9 9.2
2016-Feb-03 17:31N 36°35' W 008°31'1111.1
2016-Feb-03 16:31N 36°31' W 008°18'1110.9
2016-Feb-03 15:31N 36°28' W 008°06'4810.8
2016-Feb-03 11:05N 36°13' W 007°09'6 9.8
2016-Feb-03 10:27N 36°11' W 007°02'4410.4
2016-Feb-03 06:15N 35°58' W 006°10'2112.4
2016-Feb-03 04:33N 35°57' W 005°44'1211.7
2016-Feb-03 03:33N 35°59' W 005°30'1110.8
2016-Feb-03 02:33N 36°02' W 005°17'1111.1
2016-Feb-03 01:32N 36°04' W 005°03'  

Dump ship's entire track history